sensor_id;sensor_type;location;lat;lon;timestamp;P1;durP1;ratioP1;P2;durP2;ratioP2
3613;SDS011;1821;50.936;6.854;2023-02-22T00:00:32;74.05;;;35.63;;
3613;SDS011;1821;50.936;6.854;2023-02-22T00:01:23;69.00;;;33.75;;
3613;SDS011;1821;50.936;6.854;2023-02-22T00:02:28;83.93;;;32.20;;
3613;SDS011;1821;50.936;6.854;2023-02-22T00:03:11;67.10;;;31.80;;
3613;SDS011;1821;50.936;6.854;2023-02-22T00:03:57;68.20;;;31.55;;
3613;SDS011;1821;50.936;6.854;2023-02-22T00:04:39;68.13;;;32.05;;
3613;SDS011;1821;50.936;6.854;2023-02-22T00:05:21;54.72;;;30.70;;
3613;SDS011;1821;50.936;6.854;2023-02-22T00:06:05;67.65;;;33.15;;
3613;SDS011;1821;50.936;6.854;2023-02-22T00:06:47;76.30;;;31.73;;
3613;SDS011;1821;50.936;6.854;2023-02-22T00:07:29;70.57;;;31.00;;
3613;SDS011;1821;50.936;6.854;2023-02-22T00:08:12;70.75;;;32.17;;
3613;SDS011;1821;50.936;6.854;2023-02-22T00:08:55;66.90;;;32.38;;
3613;SDS011;1821;50.936;6.854;2023-02-22T00:09:37;68.15;;;33.13;;
3613;SDS011;1821;50.936;6.854;2023-02-22T00:10:19;83.65;;;32.30;;
3613;SDS011;1821;50.936;6.854;2023-02-22T00:11:06;81.97;;;31.40;;
3613;SDS011;1821;50.936;6.854;2023-02-22T00:11:49;59.30;;;31.63;;
3613;SDS011;1821;50.936;6.854;2023-02-22T00:12:31;56.97;;;30.88;;
3613;SDS011;1821;50.936;6.854;2023-02-22T00:13:13;63.60;;;31.80;;
3613;SDS011;1821;50.936;6.854;2023-02-22T00:13:55;70.20;;;31.02;;
3613;SDS011;1821;50.936;6.854;2023-02-22T00:14:39;59.47;;;30.73;;
3613;SDS011;1821;50.936;6.854;2023-02-22T00:15:23;55.20;;;32.35;;
3613;SDS011;1821;50.936;6.854;2023-02-22T00:16:08;66.47;;;32.70;;
3613;SDS011;1821;50.936;6.854;2023-02-22T00:16:53;57.10;;;30.83;;
3613;SDS011;1821;50.936;6.854;2023-02-22T00:17:42;60.80;;;30.52;;
3613;SDS011;1821;50.936;6.854;2023-02-22T00:18:25;64.53;;;31.73;;
3613;SDS011;1821;50.936;6.854;2023-02-22T00:19:10;60.72;;;32.05;;
3613;SDS011;1821;50.936;6.854;2023-02-22T00:19:52;65.07;;;31.35;;
3613;SDS011;1821;50.936;6.854;2023-02-22T00:20:34;63.17;;;31.70;;
3613;SDS011;1821;50.936;6.854;2023-02-22T00:21:20;61.55;;;32.47;;
3613;SDS011;1821;50.936;6.854;2023-02-22T00:22:02;67.97;;;32.13;;
3613;SDS011;1821;50.936;6.854;2023-02-22T00:22:47;69.63;;;32.83;;
3613;SDS011;1821;50.936;6.854;2023-02-22T00:23:31;73.72;;;32.22;;
3613;SDS011;1821;50.936;6.854;2023-02-22T00:24:13;71.55;;;31.95;;
3613;SDS011;1821;50.936;6.854;2023-02-22T00:25:03;58.10;;;31.95;;
3613;SDS011;1821;50.936;6.854;2023-02-22T00:25:46;66.90;;;31.60;;
3613;SDS011;1821;50.936;6.854;2023-02-22T00:26:31;93.13;;;33.08;;
3613;SDS011;1821;50.936;6.854;2023-02-22T00:27:13;72.35;;;31.83;;
3613;SDS011;1821;50.936;6.854;2023-02-22T00:27:57;71.97;;;31.70;;
3613;SDS011;1821;50.936;6.854;2023-02-22T00:28:38;66.90;;;30.80;;
3613;SDS011;1821;50.936;6.854;2023-02-22T00:29:22;67.43;;;31.38;;
3613;SDS011;1821;50.936;6.854;2023-02-22T00:30:06;59.90;;;30.23;;
3613;SDS011;1821;50.936;6.854;2023-02-22T00:30:49;66.50;;;31.33;;
3613;SDS011;1821;50.936;6.854;2023-02-22T00:31:35;68.90;;;30.50;;
3613;SDS011;1821;50.936;6.854;2023-02-22T00:32:19;61.60;;;31.33;;
3613;SDS011;1821;50.936;6.854;2023-02-22T00:33:01;55.05;;;31.52;;
3613;SDS011;1821;50.936;6.854;2023-02-22T00:33:43;55.92;;;29.70;;
3613;SDS011;1821;50.936;6.854;2023-02-22T00:34:26;65.38;;;30.83;;
3613;SDS011;1821;50.936;6.854;2023-02-22T00:35:08;63.60;;;30.40;;
3613;SDS011;1821;50.936;6.854;2023-02-22T00:35:50;67.10;;;30.33;;
3613;SDS011;1821;50.936;6.854;2023-02-22T00:36:34;66.53;;;29.95;;
3613;SDS011;1821;50.936;6.854;2023-02-22T00:37:16;64.03;;;30.52;;
3613;SDS011;1821;50.936;6.854;2023-02-22T00:37:58;65.60;;;32.15;;
3613;SDS011;1821;50.936;6.854;2023-02-22T00:38:41;57.42;;;30.40;;
3613;SDS011;1821;50.936;6.854;2023-02-22T00:39:23;60.50;;;30.63;;
3613;SDS011;1821;50.936;6.854;2023-02-22T00:40:05;65.65;;;30.10;;
3613;SDS011;1821;50.936;6.854;2023-02-22T00:40:48;60.13;;;30.25;;
3613;SDS011;1821;50.936;6.854;2023-02-22T00:41:31;54.67;;;30.63;;
3613;SDS011;1821;50.936;6.854;2023-02-22T00:42:13;47.85;;;28.75;;
3613;SDS011;1821;50.936;6.854;2023-02-22T00:42:56;52.40;;;30.00;;
3613;SDS011;1821;50.936;6.854;2023-02-22T00:43:40;54.33;;;30.52;;
3613;SDS011;1821;50.936;6.854;2023-02-22T00:44:21;56.20;;;29.98;;
3613;SDS011;1821;50.936;6.854;2023-02-22T00:45:06;60.78;;;31.13;;
3613;SDS011;1821;50.936;6.854;2023-02-22T00:45:48;59.40;;;31.38;;
3613;SDS011;1821;50.936;6.854;2023-02-22T00:46:30;51.42;;;30.05;;
3613;SDS011;1821;50.936;6.854;2023-02-22T00:47:13;57.92;;;32.13;;
3613;SDS011;1821;50.936;6.854;2023-02-22T00:47:57;54.75;;;31.40;;
3613;SDS011;1821;50.936;6.854;2023-02-22T00:48:39;56.40;;;30.70;;
3613;SDS011;1821;50.936;6.854;2023-02-22T00:49:21;54.42;;;29.13;;
3613;SDS011;1821;50.936;6.854;2023-02-22T00:50:04;60.72;;;29.83;;
3613;SDS011;1821;50.936;6.854;2023-02-22T00:50:46;72.15;;;28.83;;
3613;SDS011;1821;50.936;6.854;2023-02-22T00:51:28;70.72;;;31.13;;
3613;SDS011;1821;50.936;6.854;2023-02-22T00:52:11;68.30;;;31.95;;
3613;SDS011;1821;50.936;6.854;2023-02-22T00:52:55;60.15;;;33.22;;
3613;SDS011;1821;50.936;6.854;2023-02-22T00:53:38;73.75;;;32.30;;
3613;SDS011;1821;50.936;6.854;2023-02-22T00:54:20;70.18;;;31.40;;
3613;SDS011;1821;50.936;6.854;2023-02-22T00:55:03;63.77;;;30.97;;
3613;SDS011;1821;50.936;6.854;2023-02-22T00:55:47;71.88;;;31.55;;
3613;SDS011;1821;50.936;6.854;2023-02-22T00:56:31;73.05;;;30.05;;
3613;SDS011;1821;50.936;6.854;2023-02-22T00:57:16;65.40;;;32.05;;
3613;SDS011;1821;50.936;6.854;2023-02-22T00:57:59;65.28;;;30.90;;
3613;SDS011;1821;50.936;6.854;2023-02-22T00:58:42;64.43;;;30.63;;
3613;SDS011;1821;50.936;6.854;2023-02-22T00:59:27;73.00;;;31.77;;
3613;SDS011;1821;50.936;6.854;2023-02-22T01:00:15;76.10;;;31.75;;
3613;SDS011;1821;50.936;6.854;2023-02-22T01:00:58;70.93;;;31.73;;
3613;SDS011;1821;50.936;6.854;2023-02-22T01:01:40;60.70;;;30.73;;
3613;SDS011;1821;50.936;6.854;2023-02-22T01:02:23;70.22;;;30.65;;
3613;SDS011;1821;50.936;6.854;2023-02-22T01:03:05;74.72;;;30.58;;
3613;SDS011;1821;50.936;6.854;2023-02-22T01:03:49;57.65;;;29.98;;
3613;SDS011;1821;50.936;6.854;2023-02-22T01:04:31;68.85;;;30.75;;
3613;SDS011;1821;50.936;6.854;2023-02-22T01:05:13;79.57;;;30.63;;
3613;SDS011;1821;50.936;6.854;2023-02-22T01:05:56;65.97;;;29.33;;
3613;SDS011;1821;50.936;6.854;2023-02-22T01:06:38;63.50;;;30.08;;
3613;SDS011;1821;50.936;6.854;2023-02-22T01:07:20;66.43;;;31.15;;
3613;SDS011;1821;50.936;6.854;2023-02-22T01:08:02;67.72;;;29.95;;
3613;SDS011;1821;50.936;6.854;2023-02-22T01:08:47;68.15;;;29.35;;
3613;SDS011;1821;50.936;6.854;2023-02-22T01:09:29;60.55;;;31.33;;
3613;SDS011;1821;50.936;6.854;2023-02-22T01:10:11;69.88;;;33.17;;
3613;SDS011;1821;50.936;6.854;2023-02-22T01:10:53;58.97;;;30.58;;
3613;SDS011;1821;50.936;6.854;2023-02-22T01:11:36;54.47;;;31.70;;
3613;SDS011;1821;50.936;6.854;2023-02-22T01:12:18;64.40;;;31.25;;
3613;SDS011;1821;50.936;6.854;2023-02-22T01:13:01;60.45;;;31.58;;
3613;SDS011;1821;50.936;6.854;2023-02-22T01:13:49;68.10;;;32.78;;
3613;SDS011;1821;50.936;6.854;2023-02-22T01:14:34;62.90;;;32.50;;
3613;SDS011;1821;50.936;6.854;2023-02-22T01:15:18;56.40;;;29.65;;
3613;SDS011;1821;50.936;6.854;2023-02-22T01:16:04;64.60;;;30.70;;
3613;SDS011;1821;50.936;6.854;2023-02-22T01:16:48;77.13;;;30.95;;
3613;SDS011;1821;50.936;6.854;2023-02-22T01:17:31;71.53;;;31.77;;
3613;SDS011;1821;50.936;6.854;2023-02-22T01:18:13;63.92;;;31.88;;
3613;SDS011;1821;50.936;6.854;2023-02-22T01:18:57;62.92;;;31.85;;
3613;SDS011;1821;50.936;6.854;2023-02-22T01:19:41;56.42;;;31.13;;
3613;SDS011;1821;50.936;6.854;2023-02-22T01:20:24;61.45;;;30.65;;
3613;SDS011;1821;50.936;6.854;2023-02-22T01:21:09;74.15;;;29.58;;
3613;SDS011;1821;50.936;6.854;2023-02-22T01:21:52;62.25;;;30.90;;
3613;SDS011;1821;50.936;6.854;2023-02-22T01:22:35;71.90;;;33.05;;
3613;SDS011;1821;50.936;6.854;2023-02-22T01:23:17;70.85;;;31.13;;
3613;SDS011;1821;50.936;6.854;2023-02-22T01:23:59;70.63;;;31.60;;
3613;SDS011;1821;50.936;6.854;2023-02-22T01:24:41;76.22;;;31.30;;
3613;SDS011;1821;50.936;6.854;2023-02-22T01:25:24;62.80;;;29.17;;
3613;SDS011;1821;50.936;6.854;2023-02-22T01:26:09;71.90;;;31.05;;
3613;SDS011;1821;50.936;6.854;2023-02-22T01:26:51;80.40;;;32.33;;
3613;SDS011;1821;50.936;6.854;2023-02-22T01:27:33;91.60;;;33.10;;
3613;SDS011;1821;50.936;6.854;2023-02-22T01:28:16;74.30;;;32.53;;
3613;SDS011;1821;50.936;6.854;2023-02-22T01:28:58;84.15;;;32.40;;
3613;SDS011;1821;50.936;6.854;2023-02-22T01:29:40;89.07;;;31.67;;
3613;SDS011;1821;50.936;6.854;2023-02-22T01:30:23;100.38;;;32.35;;
3613;SDS011;1821;50.936;6.854;2023-02-22T01:31:08;80.00;;;31.52;;
3613;SDS011;1821;50.936;6.854;2023-02-22T01:31:51;62.75;;;32.15;;
3613;SDS011;1821;50.936;6.854;2023-02-22T01:32:35;84.60;;;33.28;;
3613;SDS011;1821;50.936;6.854;2023-02-22T01:33:17;83.22;;;34.03;;
3613;SDS011;1821;50.936;6.854;2023-02-22T01:33:59;93.53;;;35.03;;
3613;SDS011;1821;50.936;6.854;2023-02-22T01:34:42;101.70;;;34.67;;
3613;SDS011;1821;50.936;6.854;2023-02-22T01:35:25;102.05;;;33.15;;
3613;SDS011;1821;50.936;6.854;2023-02-22T01:36:09;74.47;;;32.25;;
3613;SDS011;1821;50.936;6.854;2023-02-22T01:36:51;83.93;;;33.60;;
3613;SDS011;1821;50.936;6.854;2023-02-22T01:37:34;70.85;;;33.42;;
3613;SDS011;1821;50.936;6.854;2023-02-22T01:38:16;81.95;;;34.20;;
3613;SDS011;1821;50.936;6.854;2023-02-22T01:38:58;98.03;;;32.50;;
3613;SDS011;1821;50.936;6.854;2023-02-22T01:39:40;88.72;;;31.65;;
3613;SDS011;1821;50.936;6.854;2023-02-22T01:40:24;72.10;;;31.48;;
3613;SDS011;1821;50.936;6.854;2023-02-22T01:41:10;70.28;;;32.92;;
3613;SDS011;1821;50.936;6.854;2023-02-22T01:41:52;64.90;;;32.40;;
3613;SDS011;1821;50.936;6.854;2023-02-22T01:42:35;84.65;;;33.90;;
3613;SDS011;1821;50.936;6.854;2023-02-22T01:43:21;89.70;;;34.15;;
3613;SDS011;1821;50.936;6.854;2023-02-22T01:46:23;70.20;;;33.30;;
3613;SDS011;1821;50.936;6.854;2023-02-22T01:47:06;71.55;;;32.50;;
3613;SDS011;1821;50.936;6.854;2023-02-22T01:47:51;59.25;;;31.80;;
3613;SDS011;1821;50.936;6.854;2023-02-22T01:49:46;69.35;;;32.95;;
3613;SDS011;1821;50.936;6.854;2023-02-22T01:50:33;65.05;;;32.75;;
3613;SDS011;1821;50.936;6.854;2023-02-22T01:51:19;78.32;;;34.42;;
3613;SDS011;1821;50.936;6.854;2023-02-22T01:52:05;67.32;;;33.17;;
3613;SDS011;1821;50.936;6.854;2023-02-22T01:52:52;58.97;;;33.95;;
3613;SDS011;1821;50.936;6.854;2023-02-22T01:53:39;60.35;;;33.03;;
3613;SDS011;1821;50.936;6.854;2023-02-22T01:54:26;65.50;;;31.38;;
3613;SDS011;1821;50.936;6.854;2023-02-22T01:55:13;64.82;;;32.28;;
3613;SDS011;1821;50.936;6.854;2023-02-22T01:55:55;69.18;;;32.92;;
3613;SDS011;1821;50.936;6.854;2023-02-22T01:56:39;70.13;;;32.72;;
3613;SDS011;1821;50.936;6.854;2023-02-22T01:57:30;64.38;;;32.80;;
3613;SDS011;1821;50.936;6.854;2023-02-22T01:58:15;55.58;;;32.47;;
3613;SDS011;1821;50.936;6.854;2023-02-22T01:59:03;65.47;;;33.45;;
3613;SDS011;1821;50.936;6.854;2023-02-22T01:59:52;78.95;;;34.85;;
3613;SDS011;1821;50.936;6.854;2023-02-22T02:00:39;70.75;;;34.25;;
3613;SDS011;1821;50.936;6.854;2023-02-22T02:01:22;78.03;;;34.63;;
3613;SDS011;1821;50.936;6.854;2023-02-22T02:02:05;65.20;;;33.83;;
3613;SDS011;1821;50.936;6.854;2023-02-22T02:02:48;69.22;;;34.75;;
3613;SDS011;1821;50.936;6.854;2023-02-22T02:03:37;75.45;;;35.10;;
3613;SDS011;1821;50.936;6.854;2023-02-22T02:04:21;69.47;;;33.95;;
3613;SDS011;1821;50.936;6.854;2023-02-22T02:05:06;65.32;;;33.55;;
3613;SDS011;1821;50.936;6.854;2023-02-22T02:05:49;64.90;;;33.85;;
3613;SDS011;1821;50.936;6.854;2023-02-22T02:06:33;63.60;;;33.45;;
3613;SDS011;1821;50.936;6.854;2023-02-22T02:07:16;64.13;;;34.10;;
3613;SDS011;1821;50.936;6.854;2023-02-22T02:08:04;60.88;;;34.22;;
3613;SDS011;1821;50.936;6.854;2023-02-22T02:10:44;59.00;;;30.98;;
3613;SDS011;1821;50.936;6.854;2023-02-22T02:11:28;68.05;;;33.15;;
3613;SDS011;1821;50.936;6.854;2023-02-22T02:12:11;65.30;;;33.97;;
3613;SDS011;1821;50.936;6.854;2023-02-22T02:12:55;70.22;;;34.50;;
3613;SDS011;1821;50.936;6.854;2023-02-22T02:13:38;71.38;;;34.22;;
3613;SDS011;1821;50.936;6.854;2023-02-22T02:14:20;64.25;;;35.63;;
3613;SDS011;1821;50.936;6.854;2023-02-22T02:16:09;62.15;;;35.72;;
3613;SDS011;1821;50.936;6.854;2023-02-22T02:16:51;60.78;;;35.75;;
3613;SDS011;1821;50.936;6.854;2023-02-22T02:17:36;65.40;;;35.85;;
3613;SDS011;1821;50.936;6.854;2023-02-22T02:18:18;56.20;;;33.90;;
3613;SDS011;1821;50.936;6.854;2023-02-22T02:19:00;64.22;;;34.25;;
3613;SDS011;1821;50.936;6.854;2023-02-22T02:26:29;59.63;;;33.63;;
3613;SDS011;1821;50.936;6.854;2023-02-22T02:32:10;62.58;;;34.33;;
3613;SDS011;1821;50.936;6.854;2023-02-22T02:33:10;72.18;;;33.88;;
3613;SDS011;1821;50.936;6.854;2023-02-22T02:35:59;75.68;;;36.20;;
3613;SDS011;1821;50.936;6.854;2023-02-22T02:37:07;75.60;;;33.95;;
3613;SDS011;1821;50.936;6.854;2023-02-22T02:42:02;70.95;;;35.08;;
3613;SDS011;1821;50.936;6.854;2023-02-22T02:43:58;97.70;;;36.63;;
3613;SDS011;1821;50.936;6.854;2023-02-22T02:45:01;68.13;;;34.97;;
3613;SDS011;1821;50.936;6.854;2023-02-22T02:46:55;68.93;;;36.78;;
3613;SDS011;1821;50.936;6.854;2023-02-22T02:47:46;75.20;;;35.78;;
3613;SDS011;1821;50.936;6.854;2023-02-22T02:48:33;75.47;;;35.47;;
3613;SDS011;1821;50.936;6.854;2023-02-22T02:49:36;59.45;;;35.15;;
3613;SDS011;1821;50.936;6.854;2023-02-22T02:50:26;81.95;;;35.97;;
3613;SDS011;1821;50.936;6.854;2023-02-22T02:51:15;86.47;;;36.90;;
3613;SDS011;1821;50.936;6.854;2023-02-22T02:51:59;63.03;;;34.72;;
3613;SDS011;1821;50.936;6.854;2023-02-22T02:52:43;58.17;;;34.10;;
3613;SDS011;1821;50.936;6.854;2023-02-22T02:53:30;62.20;;;34.30;;
3613;SDS011;1821;50.936;6.854;2023-02-22T02:54:17;62.85;;;33.28;;
3613;SDS011;1821;50.936;6.854;2023-02-22T02:55:04;58.45;;;32.50;;
3613;SDS011;1821;50.936;6.854;2023-02-22T02:55:47;58.53;;;34.08;;
3613;SDS011;1821;50.936;6.854;2023-02-22T02:56:29;58.08;;;33.40;;
3613;SDS011;1821;50.936;6.854;2023-02-22T02:57:12;58.53;;;31.58;;
3613;SDS011;1821;50.936;6.854;2023-02-22T02:57:54;65.55;;;33.75;;
3613;SDS011;1821;50.936;6.854;2023-02-22T02:58:49;57.97;;;33.95;;
3613;SDS011;1821;50.936;6.854;2023-02-22T02:59:34;71.18;;;34.80;;
3613;SDS011;1821;50.936;6.854;2023-02-22T03:00:20;66.60;;;33.92;;
3613;SDS011;1821;50.936;6.854;2023-02-22T03:01:06;59.95;;;34.40;;
3613;SDS011;1821;50.936;6.854;2023-02-22T03:01:56;56.60;;;33.88;;
3613;SDS011;1821;50.936;6.854;2023-02-22T03:03:52;71.30;;;34.67;;
3613;SDS011;1821;50.936;6.854;2023-02-22T03:06:46;75.60;;;34.08;;
3613;SDS011;1821;50.936;6.854;2023-02-22T03:07:49;64.15;;;34.90;;
3613;SDS011;1821;50.936;6.854;2023-02-22T03:11:36;63.78;;;36.15;;
3613;SDS011;1821;50.936;6.854;2023-02-22T03:13:49;70.70;;;35.42;;
3613;SDS011;1821;50.936;6.854;2023-02-22T03:14:40;76.38;;;33.67;;
3613;SDS011;1821;50.936;6.854;2023-02-22T03:17:46;58.47;;;33.10;;
3613;SDS011;1821;50.936;6.854;2023-02-22T03:18:33;59.63;;;33.65;;
3613;SDS011;1821;50.936;6.854;2023-02-22T03:20:30;57.95;;;33.53;;
3613;SDS011;1821;50.936;6.854;2023-02-22T03:22:36;57.80;;;33.42;;
3613;SDS011;1821;50.936;6.854;2023-02-22T03:23:31;57.30;;;33.08;;
3613;SDS011;1821;50.936;6.854;2023-02-22T03:25:06;53.50;;;31.48;;
3613;SDS011;1821;50.936;6.854;2023-02-22T03:25:52;51.72;;;31.25;;
3613;SDS011;1821;50.936;6.854;2023-02-22T03:26:42;56.67;;;31.27;;
3613;SDS011;1821;50.936;6.854;2023-02-22T03:27:42;55.00;;;31.38;;
3613;SDS011;1821;50.936;6.854;2023-02-22T03:28:28;63.30;;;30.23;;
3613;SDS011;1821;50.936;6.854;2023-02-22T03:29:14;63.28;;;31.75;;
3613;SDS011;1821;50.936;6.854;2023-02-22T03:30:03;60.33;;;31.27;;
3613;SDS011;1821;50.936;6.854;2023-02-22T03:30:50;57.28;;;29.27;;
3613;SDS011;1821;50.936;6.854;2023-02-22T03:31:57;48.88;;;30.42;;
3613;SDS011;1821;50.936;6.854;2023-02-22T03:32:43;48.10;;;31.73;;
3613;SDS011;1821;50.936;6.854;2023-02-22T03:34:43;49.10;;;30.42;;
3613;SDS011;1821;50.936;6.854;2023-02-22T03:35:33;53.95;;;31.10;;
3613;SDS011;1821;50.936;6.854;2023-02-22T03:36:29;61.40;;;30.60;;
3613;SDS011;1821;50.936;6.854;2023-02-22T03:37:18;47.25;;;29.20;;
3613;SDS011;1821;50.936;6.854;2023-02-22T03:38:04;47.45;;;29.55;;
3613;SDS011;1821;50.936;6.854;2023-02-22T03:38:52;48.47;;;29.45;;
3613;SDS011;1821;50.936;6.854;2023-02-22T03:39:37;49.20;;;28.90;;
3613;SDS011;1821;50.936;6.854;2023-02-22T03:40:22;49.42;;;29.27;;
3613;SDS011;1821;50.936;6.854;2023-02-22T03:41:18;42.10;;;28.23;;
3613;SDS011;1821;50.936;6.854;2023-02-22T03:42:06;52.95;;;29.67;;
3613;SDS011;1821;50.936;6.854;2023-02-22T03:42:53;55.72;;;29.83;;
3613;SDS011;1821;50.936;6.854;2023-02-22T03:43:41;53.63;;;31.98;;
3613;SDS011;1821;50.936;6.854;2023-02-22T03:44:27;56.80;;;31.27;;
3613;SDS011;1821;50.936;6.854;2023-02-22T03:45:13;52.70;;;31.40;;
3613;SDS011;1821;50.936;6.854;2023-02-22T03:45:57;51.47;;;31.38;;
3613;SDS011;1821;50.936;6.854;2023-02-22T03:46:43;50.80;;;32.03;;
3613;SDS011;1821;50.936;6.854;2023-02-22T03:47:40;48.72;;;31.27;;
3613;SDS011;1821;50.936;6.854;2023-02-22T03:48:30;54.58;;;31.33;;
3613;SDS011;1821;50.936;6.854;2023-02-22T03:50:58;49.42;;;30.83;;
3613;SDS011;1821;50.936;6.854;2023-02-22T03:51:42;51.67;;;30.15;;
3613;SDS011;1821;50.936;6.854;2023-02-22T03:52:25;47.72;;;31.10;;
3613;SDS011;1821;50.936;6.854;2023-02-22T03:53:09;52.50;;;29.90;;
3613;SDS011;1821;50.936;6.854;2023-02-22T03:53:52;49.78;;;29.52;;
3613;SDS011;1821;50.936;6.854;2023-02-22T03:54:34;44.92;;;28.33;;
3613;SDS011;1821;50.936;6.854;2023-02-22T03:55:16;47.10;;;30.40;;
3613;SDS011;1821;50.936;6.854;2023-02-22T03:55:59;45.65;;;30.58;;
3613;SDS011;1821;50.936;6.854;2023-02-22T03:56:44;48.35;;;30.80;;
3613;SDS011;1821;50.936;6.854;2023-02-22T03:57:34;48.42;;;30.50;;
3613;SDS011;1821;50.936;6.854;2023-02-22T03:58:19;48.80;;;30.38;;
3613;SDS011;1821;50.936;6.854;2023-02-22T03:59:06;45.80;;;28.75;;
3613;SDS011;1821;50.936;6.854;2023-02-22T03:59:52;51.78;;;30.10;;
3613;SDS011;1821;50.936;6.854;2023-02-22T04:00:34;48.35;;;29.58;;
3613;SDS011;1821;50.936;6.854;2023-02-22T04:01:17;43.58;;;28.55;;
3613;SDS011;1821;50.936;6.854;2023-02-22T04:02:02;43.38;;;28.65;;
3613;SDS011;1821;50.936;6.854;2023-02-22T04:02:44;44.58;;;27.50;;
3613;SDS011;1821;50.936;6.854;2023-02-22T04:03:29;45.97;;;27.23;;
3613;SDS011;1821;50.936;6.854;2023-02-22T04:04:10;49.05;;;30.10;;
3613;SDS011;1821;50.936;6.854;2023-02-22T04:04:52;47.38;;;29.45;;
3613;SDS011;1821;50.936;6.854;2023-02-22T04:05:35;50.67;;;28.77;;
3613;SDS011;1821;50.936;6.854;2023-02-22T04:06:19;46.85;;;28.95;;
3613;SDS011;1821;50.936;6.854;2023-02-22T04:07:01;42.90;;;28.30;;
3613;SDS011;1821;50.936;6.854;2023-02-22T04:07:43;42.65;;;27.95;;
3613;SDS011;1821;50.936;6.854;2023-02-22T04:08:25;43.78;;;28.17;;
3613;SDS011;1821;50.936;6.854;2023-02-22T04:09:07;48.70;;;27.30;;
3613;SDS011;1821;50.936;6.854;2023-02-22T04:09:49;44.90;;;27.55;;
3613;SDS011;1821;50.936;6.854;2023-02-22T04:10:31;45.83;;;27.23;;
3613;SDS011;1821;50.936;6.854;2023-02-22T04:11:13;46.33;;;27.67;;
3613;SDS011;1821;50.936;6.854;2023-02-22T04:11:56;41.72;;;26.88;;
3613;SDS011;1821;50.936;6.854;2023-02-22T04:12:37;44.08;;;27.17;;
3613;SDS011;1821;50.936;6.854;2023-02-22T04:13:20;43.63;;;26.73;;
3613;SDS011;1821;50.936;6.854;2023-02-22T04:14:04;44.20;;;26.63;;
3613;SDS011;1821;50.936;6.854;2023-02-22T04:14:46;46.80;;;26.85;;
3613;SDS011;1821;50.936;6.854;2023-02-22T04:15:28;44.53;;;27.83;;
3613;SDS011;1821;50.936;6.854;2023-02-22T04:16:10;42.53;;;27.15;;
3613;SDS011;1821;50.936;6.854;2023-02-22T04:16:55;42.63;;;27.42;;
3613;SDS011;1821;50.936;6.854;2023-02-22T04:17:39;40.05;;;27.35;;
3613;SDS011;1821;50.936;6.854;2023-02-22T04:18:24;39.40;;;26.55;;
3613;SDS011;1821;50.936;6.854;2023-02-22T04:19:06;42.10;;;26.60;;
3613;SDS011;1821;50.936;6.854;2023-02-22T04:19:47;47.75;;;26.35;;
3613;SDS011;1821;50.936;6.854;2023-02-22T04:20:29;43.53;;;27.60;;
3613;SDS011;1821;50.936;6.854;2023-02-22T04:21:14;44.65;;;27.42;;
3613;SDS011;1821;50.936;6.854;2023-02-22T04:21:56;45.67;;;26.20;;
3613;SDS011;1821;50.936;6.854;2023-02-22T04:22:38;45.83;;;26.83;;
3613;SDS011;1821;50.936;6.854;2023-02-22T04:23:21;47.67;;;27.65;;
3613;SDS011;1821;50.936;6.854;2023-02-22T04:24:03;49.42;;;26.08;;
3613;SDS011;1821;50.936;6.854;2023-02-22T04:24:45;53.45;;;27.20;;
3613;SDS011;1821;50.936;6.854;2023-02-22T04:25:29;51.67;;;28.35;;
3613;SDS011;1821;50.936;6.854;2023-02-22T04:26:10;42.85;;;25.90;;
3613;SDS011;1821;50.936;6.854;2023-02-22T04:26:52;42.60;;;27.27;;
3613;SDS011;1821;50.936;6.854;2023-02-22T04:27:37;43.17;;;26.17;;
3613;SDS011;1821;50.936;6.854;2023-02-22T04:28:20;47.10;;;26.77;;
3613;SDS011;1821;50.936;6.854;2023-02-22T04:29:02;45.10;;;27.42;;
3613;SDS011;1821;50.936;6.854;2023-02-22T04:29:45;40.83;;;27.15;;
3613;SDS011;1821;50.936;6.854;2023-02-22T04:30:29;44.13;;;27.08;;
3613;SDS011;1821;50.936;6.854;2023-02-22T04:31:11;44.30;;;26.08;;
3613;SDS011;1821;50.936;6.854;2023-02-22T04:31:52;43.92;;;26.75;;
3613;SDS011;1821;50.936;6.854;2023-02-22T04:32:34;48.28;;;27.42;;
3613;SDS011;1821;50.936;6.854;2023-02-22T04:33:17;41.63;;;26.75;;
3613;SDS011;1821;50.936;6.854;2023-02-22T04:33:59;44.40;;;26.80;;
3613;SDS011;1821;50.936;6.854;2023-02-22T04:34:41;49.25;;;26.40;;
3613;SDS011;1821;50.936;6.854;2023-02-22T04:35:23;44.38;;;25.67;;
3613;SDS011;1821;50.936;6.854;2023-02-22T04:36:08;41.40;;;25.75;;
3613;SDS011;1821;50.936;6.854;2023-02-22T04:36:50;42.45;;;26.33;;
3613;SDS011;1821;50.936;6.854;2023-02-22T04:37:32;43.47;;;25.45;;
3613;SDS011;1821;50.936;6.854;2023-02-22T04:38:15;43.70;;;25.85;;
3613;SDS011;1821;50.936;6.854;2023-02-22T04:38:57;40.65;;;26.15;;
3613;SDS011;1821;50.936;6.854;2023-02-22T04:39:42;39.40;;;26.17;;
3613;SDS011;1821;50.936;6.854;2023-02-22T04:40:24;40.75;;;26.45;;
3613;SDS011;1821;50.936;6.854;2023-02-22T04:41:06;42.40;;;27.67;;
3613;SDS011;1821;50.936;6.854;2023-02-22T04:41:47;43.25;;;27.50;;
3613;SDS011;1821;50.936;6.854;2023-02-22T04:42:29;43.10;;;26.85;;
3613;SDS011;1821;50.936;6.854;2023-02-22T04:43:11;43.38;;;27.25;;
3613;SDS011;1821;50.936;6.854;2023-02-22T04:43:53;39.88;;;25.63;;
3613;SDS011;1821;50.936;6.854;2023-02-22T04:44:37;42.95;;;26.55;;
3613;SDS011;1821;50.936;6.854;2023-02-22T04:45:19;40.25;;;26.52;;
3613;SDS011;1821;50.936;6.854;2023-02-22T04:46:01;42.90;;;25.70;;
3613;SDS011;1821;50.936;6.854;2023-02-22T04:46:44;48.00;;;27.02;;
3613;SDS011;1821;50.936;6.854;2023-02-22T04:47:27;41.63;;;26.05;;
3613;SDS011;1821;50.936;6.854;2023-02-22T04:48:09;39.78;;;25.40;;
3613;SDS011;1821;50.936;6.854;2023-02-22T04:48:51;38.60;;;25.70;;
3613;SDS011;1821;50.936;6.854;2023-02-22T04:49:34;37.20;;;23.95;;
3613;SDS011;1821;50.936;6.854;2023-02-22T04:50:19;42.22;;;25.20;;
3613;SDS011;1821;50.936;6.854;2023-02-22T04:51:01;39.95;;;24.20;;
3613;SDS011;1821;50.936;6.854;2023-02-22T04:51:43;41.20;;;24.80;;
3613;SDS011;1821;50.936;6.854;2023-02-22T04:52:25;40.15;;;23.77;;
3613;SDS011;1821;50.936;6.854;2023-02-22T04:53:08;43.03;;;24.38;;
3613;SDS011;1821;50.936;6.854;2023-02-22T04:53:49;39.78;;;24.25;;
3613;SDS011;1821;50.936;6.854;2023-02-22T04:54:34;42.17;;;25.75;;
3613;SDS011;1821;50.936;6.854;2023-02-22T04:55:16;37.22;;;24.48;;
3613;SDS011;1821;50.936;6.854;2023-02-22T04:55:58;43.38;;;25.58;;
3613;SDS011;1821;50.936;6.854;2023-02-22T04:56:43;48.05;;;24.02;;
3613;SDS011;1821;50.936;6.854;2023-02-22T04:57:27;40.78;;;24.65;;
3613;SDS011;1821;50.936;6.854;2023-02-22T04:58:09;40.83;;;23.50;;
3613;SDS011;1821;50.936;6.854;2023-02-22T04:58:51;39.38;;;24.38;;
3613;SDS011;1821;50.936;6.854;2023-02-22T04:59:33;44.33;;;25.50;;
3613;SDS011;1821;50.936;6.854;2023-02-22T05:00:17;46.53;;;25.52;;
3613;SDS011;1821;50.936;6.854;2023-02-22T05:01:02;35.05;;;23.10;;
3613;SDS011;1821;50.936;6.854;2023-02-22T05:01:44;37.25;;;24.73;;
3613;SDS011;1821;50.936;6.854;2023-02-22T05:02:26;38.35;;;25.05;;
3613;SDS011;1821;50.936;6.854;2023-02-22T05:03:08;37.42;;;25.13;;
3613;SDS011;1821;50.936;6.854;2023-02-22T05:03:50;38.85;;;25.30;;
3613;SDS011;1821;50.936;6.854;2023-02-22T05:04:32;38.63;;;25.77;;
3613;SDS011;1821;50.936;6.854;2023-02-22T05:05:15;37.28;;;24.65;;
3613;SDS011;1821;50.936;6.854;2023-02-22T05:05:58;40.25;;;24.23;;
3613;SDS011;1821;50.936;6.854;2023-02-22T05:06:42;35.50;;;25.38;;
3613;SDS011;1821;50.936;6.854;2023-02-22T05:07:24;37.45;;;26.42;;
3613;SDS011;1821;50.936;6.854;2023-02-22T05:08:06;41.58;;;25.92;;
3613;SDS011;1821;50.936;6.854;2023-02-22T05:08:49;41.08;;;25.83;;
3613;SDS011;1821;50.936;6.854;2023-02-22T05:09:30;36.72;;;23.30;;
3613;SDS011;1821;50.936;6.854;2023-02-22T05:10:13;39.90;;;23.92;;
3613;SDS011;1821;50.936;6.854;2023-02-22T05:10:57;40.92;;;24.63;;